Time;durP1;ratioP1;P1;durP2;ratioP2;P2;SDS_P1;SDS_P2;PMS_P1;PMS_P2;Temp;Humidity;BMP_temperature;BMP_pressure;BME280_temperature;BME280_humidity;BME280_pressure;Samples;Min_cycle;Max_cycle;Signal;HPM_P1;HPM_P2
2022/04/20 00:01:23;;;;;;;3.47;2.28;;;12.40;1.00;;;;;;5056585;28;20112;-82
2022/04/20 00:03:49;;;;;;;4.35;2.15;;;12.20;1.00;;;;;;5055411;28;20565;-83
2022/04/20 00:06:14;;;;;;;2.13;1.92;;;12.20;1.00;;;;;;5066481;28;20032;-82
2022/04/20 00:08:41;;;;;;;2.28;2.08;;;12.20;1.00;;;;;;5057927;28;20461;-82
2022/04/20 00:11:07;;;;;;;3.25;2.40;;;12.30;1.00;;;;;;5054384;28;20089;-82
2022/04/20 00:13:34;;;;;;;2.55;2.10;;;12.50;1.00;;;;;;5056608;28;20033;-82
2022/04/20 00:15:59;;;;;;;4.43;2.20;;;12.20;1.00;;;;;;5054519;28;20021;-82
2022/04/20 00:18:25;;;;;;;2.58;2.13;;;12.30;1.00;;;;;;5053604;28;20032;-83
2022/04/20 00:20:51;;;;;;;3.53;2.00;;;12.30;1.00;;;;;;5054899;28;20021;-82
2022/04/20 00:23:17;;;;;;;3.88;2.15;;;12.20;1.00;;;;;;5057499;28;20033;-82
2022/04/20 00:25:42;;;;;;;2.75;2.20;;;12.10;1.00;;;;;;5055939;28;20116;-82
2022/04/20 00:28:08;;;;;;;2.38;1.98;;;12.50;1.00;;;;;;5055999;28;20405;-82
2022/04/20 00:30:34;;;;;;;3.75;2.40;;;12.10;1.00;;;;;;5054471;28;20032;-83
2022/04/20 00:32:59;;;;;;;2.90;2.42;;;11.60;1.00;;;;;;5052701;28;20045;-82
2022/04/20 00:35:26;;;;;;;2.20;2.00;;;11.60;1.00;;;;;;5057769;28;20381;-82
2022/04/20 00:37:51;;;;;;;2.50;2.30;;;11.60;1.00;;;;;;5056387;28;20048;-82
2022/04/20 00:40:20;;;;;;;2.72;2.00;;;11.80;1.00;;;;;;5055379;28;20025;-82
2022/04/20 00:42:47;;;;;;;3.45;2.20;;;11.60;1.00;;;;;;5054246;28;20046;-82
2022/04/20 00:45:14;;;;;;;4.43;2.40;;;11.60;1.00;;;;;;5050232;28;20021;-82
2022/04/20 00:47:43;;;;;;;4.20;2.70;;;11.70;1.00;;;;;;5057188;28;20032;-82
2022/04/20 00:50:10;;;;;;;4.00;2.70;;;11.80;1.00;;;;;;5056009;28;20022;-82
2022/04/20 00:52:36;;;;;;;6.22;2.85;;;11.80;1.00;;;;;;5055401;28;20087;-82
2022/04/20 00:55:03;;;;;;;6.50;2.55;;;12.00;1.00;;;;;;5055217;28;20025;-82
2022/04/20 00:57:29;;;;;;;2.95;2.30;;;12.00;1.00;;;;;;5053785;28;20045;-82
2022/04/20 00:59:57;;;;;;;5.93;2.60;;;12.30;1.00;;;;;;5053472;28;20509;-82
2022/04/20 01:02:23;;;;;;;4.10;2.78;;;12.10;1.00;;;;;;5055312;28;20033;-82
2022/04/20 01:04:49;;;;;;;5.45;3.08;;;12.00;1.00;;;;;;5055559;28;20033;-82
2022/04/20 01:07:16;;;;;;;7.75;2.50;;;12.00;1.00;;;;;;5055047;28;20044;-82
2022/04/20 01:09:43;;;;;;;5.40;2.90;;;12.10;1.00;;;;;;5054780;28;20028;-82
2022/04/20 01:12:10;;;;;;;3.00;2.17;;;12.00;1.00;;;;;;5048925;28;20037;-82
2022/04/20 01:14:36;;;;;;;6.97;2.53;;;12.10;1.00;;;;;;5056963;28;20025;-82
2022/04/20 01:17:03;;;;;;;3.15;2.30;;;12.20;1.00;;;;;;5054918;28;20033;-82
2022/04/20 01:19:40;;;;;;;3.13;2.40;;;12.10;1.00;;;;;;5054804;28;20040;-82
2022/04/20 01:22:07;;;;;;;3.10;2.38;;;12.20;1.00;;;;;;5053490;28;20151;-82
2022/04/20 01:24:36;;;;;;;2.90;2.60;;;12.00;1.00;;;;;;5051576;28;20035;-82
2022/04/20 01:27:03;;;;;;;3.95;2.40;;;11.90;1.00;;;;;;5051867;28;20030;-82
2022/04/20 01:29:29;;;;;;;3.97;2.63;;;11.70;1.00;;;;;;5056692;28;20087;-82
2022/04/20 01:31:55;;;;;;;3.55;2.38;;;11.70;1.00;;;;;;5054259;28;20593;-81
2022/04/20 01:34:21;;;;;;;5.20;2.42;;;11.70;1.00;;;;;;5053736;28;20079;-82
2022/04/20 01:36:47;;;;;;;4.00;2.13;;;11.80;1.00;;;;;;5054174;28;20055;-81
2022/04/20 01:39:13;;;;;;;2.72;2.30;;;11.80;1.00;;;;;;5050540;28;20029;-82
2022/04/20 01:41:39;;;;;;;3.28;2.40;;;11.90;1.00;;;;;;5056599;28;20025;-83
2022/04/20 01:44:05;;;;;;;3.50;2.30;;;11.90;1.00;;;;;;5054602;28;20028;-82
2022/04/20 01:46:31;;;;;;;2.17;1.98;;;12.10;1.00;;;;;;5054565;28;20451;-83
2022/04/20 01:48:56;;;;;;;3.58;2.05;;;11.70;1.00;;;;;;5054460;28;20017;-82
2022/04/20 01:54:07;;;;;;;2.30;2.10;;;11.70;1.00;;;;;;5049887;28;20088;-82
2022/04/20 01:56:33;;;;;;;2.65;2.22;;;11.60;1.00;;;;;;5056205;28;20067;-82
2022/04/20 01:58:59;;;;;;;3.10;2.28;;;11.40;1.00;;;;;;5054168;28;20029;-81
2022/04/20 02:04:09;;;;;;;3.13;2.20;;;11.10;1.00;;;;;;5052776;28;20032;-82
2022/04/20 02:06:34;;;;;;;4.57;2.33;;;11.10;1.00;;;;;;5052816;28;20032;-82
2022/04/20 02:09:00;;;;;;;3.38;2.20;;;10.80;1.00;;;;;;5050852;28;20039;-82
2022/04/20 02:11:26;;;;;;;2.97;2.50;;;10.70;1.00;;;;;;5056611;28;20115;-82
2022/04/20 02:13:51;;;;;;;3.47;2.30;;;10.70;1.00;;;;;;5052714;28;20405;-82
2022/04/20 02:16:17;;;;;;;4.53;2.58;;;10.60;1.00;;;;;;5053819;28;20029;-82
2022/04/20 02:18:43;;;;;;;3.80;2.60;;;10.40;1.00;;;;;;5053893;28;20032;-82
2022/04/20 02:21:08;;;;;;;3.72;2.40;;;10.60;1.00;;;;;;5049300;28;20083;-82
2022/04/20 02:23:34;;;;;;;2.85;2.50;;;10.70;1.00;;;;;;5056471;28;20056;-82
2022/04/20 02:25:59;;;;;;;4.03;2.35;;;11.00;1.00;;;;;;5053742;28;20108;-81
2022/04/20 02:28:25;;;;;;;4.72;2.50;;;10.90;1.00;;;;;;5052682;28;20028;-82
2022/04/20 02:30:51;;;;;;;2.92;2.25;;;10.90;1.00;;;;;;5053676;28;20067;-82
2022/04/20 02:33:16;;;;;;;2.72;2.30;;;11.20;1.00;;;;;;5050480;28;20064;-82
2022/04/20 02:35:42;;;;;;;5.32;2.83;;;11.00;1.00;;;;;;5054133;28;20037;-82
2022/04/20 02:38:10;;;;;;;4.72;2.45;;;10.70;1.00;;;;;;5052770;28;20033;-82
2022/04/20 02:40:38;;;;;;;2.55;2.30;;;10.70;1.00;;;;;;5050896;28;20504;-81
2022/04/20 02:43:04;;;;;;;2.45;2.25;;;11.20;1.00;;;;;;5052901;28;20130;-82
2022/04/20 02:45:30;;;;;;;3.92;2.50;;;10.90;1.00;;;;;;5052042;28;20100;-82
2022/04/20 02:47:56;;;;;;;2.83;2.40;;;10.70;1.00;;;;;;5050942;28;20021;-82
2022/04/20 02:50:22;;;;;;;3.45;2.55;;;10.60;1.00;;;;;;5055310;28;20162;-82
2022/04/20 02:52:47;;;;;;;2.95;2.53;;;10.80;1.00;;;;;;5052550;28;20037;-82
2022/04/20 02:55:13;;;;;;;2.90;2.55;;;11.00;1.00;;;;;;5053466;28;20026;-82
2022/04/20 02:57:38;;;;;;;2.97;2.60;;;10.70;1.00;;;;;;5053386;28;20114;-82
2022/04/20 03:00:05;;;;;;;2.50;2.30;;;10.90;1.00;;;;;;5049579;28;20021;-82
2022/04/20 03:02:33;;;;;;;4.60;2.65;;;11.20;1.00;;;;;;5055581;28;20472;-82
2022/04/20 03:04:59;;;;;;;5.07;2.65;;;10.60;1.00;;;;;;5053676;28;20029;-82
2022/04/20 03:07:25;;;;;;;2.88;2.58;;;10.80;1.00;;;;;;5053575;28;20131;-82
2022/04/20 03:09:50;;;;;;;5.07;2.92;;;10.70;1.00;;;;;;5053243;28;20074;-82
2022/04/20 03:12:16;;;;;;;4.88;2.90;;;10.30;1.00;;;;;;5048569;28;20048;-82
2022/04/20 03:14:42;;;;;;;2.88;2.53;;;10.10;1.00;;;;;;5053930;28;20029;-82
2022/04/20 03:17:08;;;;;;;3.47;3.05;;;10.40;1.00;;;;;;5052672;28;20117;-82
2022/04/20 03:19:33;;;;;;;3.65;2.53;;;10.60;1.00;;;;;;5052119;28;20493;-82
2022/04/20 03:21:59;;;;;;;5.65;2.58;;;10.60;1.00;;;;;;5051923;28;20135;-81
2022/04/20 03:24:25;;;;;;;3.33;2.60;;;10.30;1.00;;;;;;5051173;28;20021;-82
2022/04/20 03:26:50;;;;;;;4.22;2.72;;;10.30;1.00;;;;;;5052299;28;20104;-82
2022/04/20 03:29:16;;;;;;;4.45;2.83;;;10.40;1.00;;;;;;5054790;28;20021;-82
2022/04/20 03:31:41;;;;;;;3.88;2.60;;;10.30;1.00;;;;;;5051976;28;20033;-82
2022/04/20 03:34:07;;;;;;;3.08;2.63;;;10.30;1.00;;;;;;5053510;28;20051;-82
2022/04/20 03:36:34;;;;;;;4.60;3.10;;;10.40;1.00;;;;;;5055824;28;20040;-82
2022/04/20 03:39:00;;;;;;;3.30;2.92;;;10.20;1.00;;;;;;5053531;28;20592;-81
2022/04/20 03:41:26;;;;;;;2.80;2.60;;;10.20;1.00;;;;;;5058810;28;20095;-81
2022/04/20 03:43:52;;;;;;;4.30;2.80;;;10.10;1.00;;;;;;5057014;28;20028;-83
2022/04/20 03:46:17;;;;;;;5.05;2.90;;;10.40;1.00;;;;;;5056644;28;20025;-83
2022/04/20 03:48:44;;;;;;;7.38;2.78;;;10.30;1.00;;;;;;5056304;28;20036;-82
2022/04/20 03:51:10;;;;;;;3.55;3.10;;;10.40;1.00;;;;;;5052392;28;20034;-82
2022/04/20 03:53:36;;;;;;;4.18;3.05;;;10.50;1.00;;;;;;5058532;28;20497;-82
2022/04/20 03:56:01;;;;;;;5.55;3.08;;;10.50;1.00;;;;;;5056543;28;20075;-80
2022/04/20 03:58:27;;;;;;;3.38;2.92;;;10.50;1.00;;;;;;5055202;28;20045;-82
2022/04/20 04:00:52;;;;;;;4.68;2.80;;;10.40;1.00;;;;;;5056436;28;20413;-82
2022/04/20 04:03:19;;;;;;;3.45;2.95;;;10.00;1.00;;;;;;5052844;28;20029;-83
2022/04/20 04:05:44;;;;;;;5.82;3.25;;;10.10;1.00;;;;;;5056941;28;20049;-83
2022/04/20 04:08:10;;;;;;;4.00;3.15;;;10.30;1.00;;;;;;5057367;28;20099;-83
2022/04/20 04:10:36;;;;;;;3.75;3.10;;;10.30;1.00;;;;;;5056313;28;20404;-83
2022/04/20 04:13:02;;;;;;;5.70;3.10;;;10.50;1.00;;;;;;5056109;28;20016;-82
2022/04/20 04:15:28;;;;;;;4.63;3.30;;;10.30;1.00;;;;;;5054650;28;20409;-82
2022/04/20 04:17:58;;;;;;;4.50;3.47;;;10.30;1.00;;;;;;5054160;28;20048;-83
2022/04/20 04:20:26;;;;;;;6.60;3.45;;;10.50;1.00;;;;;;5056304;28;20040;-82
2022/04/20 04:22:52;;;;;;;4.53;3.35;;;10.10;1.00;;;;;;5055943;28;20037;-80
2022/04/20 04:25:18;;;;;;;4.47;3.30;;;10.00;1.00;;;;;;5056145;28;20108;-85
2022/04/20 04:27:44;;;;;;;9.70;4.60;;;9.60;1.00;;;;;;5051970;28;20047;-84
2022/04/20 04:30:10;;;;;;;4.88;3.45;;;9.50;1.00;;;;;;5066318;28;20021;-84
2022/04/20 04:32:36;;;;;;;4.65;3.88;;;9.20;1.00;;;;;;5064526;28;20048;-84
2022/04/20 04:35:02;;;;;;;4.57;3.50;;;9.10;1.00;;;;;;5056373;28;20026;-84
2022/04/20 04:37:28;;;;;;;5.30;3.45;;;9.10;1.00;;;;;;5053108;28;20390;-84
2022/04/20 04:39:54;;;;;;;5.32;3.55;;;9.30;1.00;;;;;;5053912;28;20031;-84
2022/04/20 04:42:19;;;;;;;5.05;3.30;;;9.50;1.00;;;;;;5051289;28;20029;-84
2022/04/20 04:44:45;;;;;;;6.85;3.70;;;9.70;1.00;;;;;;5055708;28;20017;-84
2022/04/20 04:49:57;;;;;;;6.00;4.03;;;9.60;1.00;;;;;;5054584;28;20028;-84
2022/04/20 04:52:23;;;;;;;3.55;3.25;;;10.30;1.00;;;;;;5055369;28;20040;-84
2022/04/20 04:54:49;;;;;;;4.68;3.60;;;10.00;1.00;;;;;;5055036;28;20024;-84
2022/04/20 04:57:14;;;;;;;5.43;3.92;;;10.00;1.00;;;;;;5051658;28;20037;-84
2022/04/20 04:59:41;;;;;;;10.32;3.72;;;9.90;1.00;;;;;;5056708;28;20025;-84
2022/04/20 05:02:08;;;;;;;6.45;4.00;;;9.70;1.00;;;;;;5055582;28;20025;-84
2022/04/20 05:04:35;;;;;;;5.57;4.20;;;9.80;1.00;;;;;;5055120;28;20025;-84
2022/04/20 05:07:00;;;;;;;6.00;4.25;;;9.80;1.00;;;;;;5055011;28;20480;-84
2022/04/20 05:09:26;;;;;;;6.20;3.90;;;9.80;1.00;;;;;;5052790;28;20067;-84
2022/04/20 05:11:52;;;;;;;7.65;4.10;;;10.00;1.00;;;;;;5053512;28;20033;-84
2022/04/20 05:14:17;;;;;;;9.13;4.00;;;9.70;1.00;;;;;;5056240;28;20032;-84
2022/04/20 05:16:43;;;;;;;9.88;4.55;;;9.70;1.00;;;;;;5053510;28;20044;-83
2022/04/20 05:19:10;;;;;;;6.55;4.22;;;9.40;1.00;;;;;;5053562;28;20048;-83
2022/04/20 05:21:35;;;;;;;6.25;4.00;;;9.40;1.00;;;;;;5053979;28;20086;-85
2022/04/20 05:24:01;;;;;;;6.57;4.15;;;9.60;1.00;;;;;;5051751;28;20057;-84
2022/04/20 05:26:27;;;;;;;6.95;4.47;;;10.00;1.00;;;;;;5055388;28;20086;-84
2022/04/20 05:28:53;;;;;;;5.07;4.13;;;10.00;1.00;;;;;;5053054;28;20029;-84
2022/04/20 05:31:19;;;;;;;6.38;4.43;;;10.20;1.00;;;;;;5055156;28;20456;-84
2022/04/20 05:33:45;;;;;;;5.07;3.97;;;10.20;1.00;;;;;;5054505;28;20040;-84
2022/04/20 05:36:12;;;;;;;10.07;4.40;;;10.20;1.00;;;;;;5050351;28;20084;-84
2022/04/20 05:41:40;;;;;;;7.40;4.57;;;9.60;1.00;;;;;;5055308;28;20055;-84
2022/04/20 05:44:12;;;;;;;8.50;4.55;;;9.50;1.00;;;;;;5054540;28;20090;-84
2022/04/20 05:46:39;;;;;;;8.18;4.35;;;9.80;1.00;;;;;;5054769;28;20059;-84
2022/04/20 05:49:05;;;;;;;8.70;4.60;;;9.80;1.00;;;;;;5054306;28;20048;-84
2022/04/20 05:51:31;;;;;;;7.40;4.20;;;9.90;1.00;;;;;;5052796;28;20052;-84
2022/04/20 05:53:57;;;;;;;10.93;4.70;;;10.20;1.00;;;;;;5052148;28;20037;-84
2022/04/20 05:56:23;;;;;;;7.57;4.38;;;10.50;1.00;;;;;;5054651;28;20068;-84
2022/04/20 05:58:52;;;;;;;11.70;4.78;;;10.60;1.00;;;;;;5052132;28;20397;-84
2022/04/20 06:01:18;;;;;;;8.52;4.55;;;10.70;1.00;;;;;;5054405;28;20029;-84
2022/04/20 06:03:45;;;;;;;5.38;4.30;;;10.90;1.00;;;;;;5054249;28;20064;-84
2022/04/20 06:06:11;;;;;;;7.95;4.35;;;10.70;1.00;;;;;;5049001;28;20027;-84
2022/04/20 06:08:37;;;;;;;8.50;4.68;;;10.60;1.00;;;;;;5062957;28;20111;-84
2022/04/20 06:11:03;;;;;;;9.55;4.72;;;10.50;1.00;;;;;;5054623;28;20036;-84
2022/04/20 06:13:29;;;;;;;10.35;4.90;;;10.60;1.00;;;;;;5052486;28;20036;-84
2022/04/20 06:15:55;;;;;;;9.32;5.10;;;11.00;1.00;;;;;;5054005;28;20033;-84
2022/04/20 06:18:21;;;;;;;9.45;5.28;;;10.60;1.00;;;;;;5050769;28;20413;-84
2022/04/20 06:20:47;;;;;;;9.52;5.40;;;10.40;1.00;;;;;;5054165;28;20553;-84
2022/04/20 06:23:13;;;;;;;12.38;5.15;;;10.60;1.00;;;;;;5055091;28;20037;-82
2022/04/20 06:25:40;;;;;;;12.00;5.28;;;10.80;1.00;;;;;;5053784;28;20100;-85
2022/04/20 06:28:06;;;;;;;14.30;5.78;;;10.90;1.00;;;;;;5052354;28;20033;-83
2022/04/20 06:30:32;;;;;;;16.60;7.05;;;10.90;1.00;;;;;;5052455;28;20036;-84
2022/04/20 06:32:58;;;;;;;18.00;6.90;;;11.30;1.00;;;;;;5051115;28;20044;-83
2022/04/20 06:35:23;;;;;;;15.18;6.95;;;11.30;1.00;;;;;;5053868;28;20025;-83
2022/04/20 06:37:50;;;;;;;20.38;8.25;;;11.40;1.00;;;;;;5052315;28;20048;-84
2022/04/20 06:40:16;;;;;;;19.35;8.18;;;11.40;1.00;;;;;;5053700;28;20488;-84
2022/04/20 06:42:42;;;;;;;19.20;8.02;;;11.40;1.00;;;;;;5053023;28;20060;-84
2022/04/20 06:45:08;;;;;;;15.68;6.40;;;11.50;1.00;;;;;;5048658;28;20033;-85
2022/04/20 06:47:34;;;;;;;20.98;7.07;;;12.00;1.00;;;;;;5055754;28;20397;-84
2022/04/20 06:50:01;;;;;;;17.92;7.22;;;12.20;1.00;;;;;;5053769;28;20100;-83
2022/04/20 07:00:39;;;;;;;21.65;7.22;;;12.40;1.00;;;;;;5053270;28;20052;-84
2022/04/20 07:03:09;;;;;;;12.40;6.18;;;12.20;1.00;;;;;;5049948;28;20021;-85
2022/04/20 07:05:35;;;;;;;23.80;7.65;;;12.30;1.00;;;;;;5055666;28;20029;-85
2022/04/20 07:08:01;;;;;;;19.83;6.55;;;12.50;1.00;;;;;;5053383;28;20029;-83
2022/04/20 07:10:28;;;;;;;16.33;5.60;;;12.60;1.00;;;;;;5055459;28;20044;-83
2022/04/20 07:12:53;;;;;;;25.33;6.13;;;12.80;1.00;;;;;;5056005;28;20107;-84
2022/04/20 07:15:20;;;;;;;10.35;5.20;;;12.80;1.00;;;;;;5052393;28;20108;-85
2022/04/20 07:17:46;;;;;;;12.50;5.20;;;12.80;1.00;;;;;;5058254;28;20093;-84
2022/04/20 07:20:17;;;;;;;15.45;5.72;;;12.70;1.00;;;;;;5058493;28;20040;-85
2022/04/20 07:22:46;;;;;;;11.30;5.20;;;12.90;1.00;;;;;;5058546;28;20040;-84
2022/04/20 07:25:12;;;;;;;14.32;5.35;;;12.90;1.00;;;;;;5057028;28;20028;-84
2022/04/20 07:27:37;;;;;;;9.32;4.78;;;13.00;1.00;;;;;;5056081;28;20021;-84
2022/04/20 07:30:04;;;;;;;15.43;5.35;;;13.10;1.00;;;;;;5053319;28;20084;-85
2022/04/20 07:32:29;;;;;;;9.10;5.03;;;13.20;1.00;;;;;;5058982;28;20452;-82
2022/04/20 07:34:55;;;;;;;11.63;5.03;;;13.00;1.00;;;;;;5056693;28;20025;-82
2022/04/20 07:37:20;;;;;;;9.02;4.65;;;13.20;1.00;;;;;;5056784;28;20044;-83
2022/04/20 07:39:47;;;;;;;9.25;5.22;;;13.20;1.00;;;;;;5047098;28;20539;-83
2022/04/20 07:42:13;;;;;;;9.98;5.28;;;13.40;1.00;;;;;;5068730;28;20034;-82
2022/04/20 07:44:38;;;;;;;5.63;4.55;;;13.30;1.00;;;;;;5058871;28;20032;-81
2022/04/20 07:47:04;;;;;;;9.07;4.68;;;13.30;1.00;;;;;;5063527;28;20041;-83
2022/04/20 07:52:19;;;;;;;9.13;5.20;;;13.40;1.00;;;;;;5055339;28;20114;-82
2022/04/20 07:54:45;;;;;;;8.32;4.85;;;13.30;1.00;;;;;;5055442;28;20024;-83
2022/04/20 07:57:14;;;;;;;9.90;4.82;;;13.40;1.00;;;;;;5052277;28;20228;-82
2022/04/20 07:59:40;;;;;;;11.20;5.05;;;13.30;1.00;;;;;;5057996;28;20401;-81
2022/04/20 08:02:06;;;;;;;10.40;5.43;;;13.40;1.00;;;;;;5056339;28;20028;-82
2022/04/20 08:04:32;;;;;;;6.25;5.10;;;13.40;1.00;;;;;;5056508;28;20409;-82
2022/04/20 08:06:57;;;;;;;16.17;6.10;;;13.60;1.00;;;;;;5056123;28;20028;-82
2022/04/20 08:09:26;;;;;;;8.88;5.60;;;13.70;1.00;;;;;;5053405;28;20048;-82
2022/04/20 08:11:52;;;;;;;6.22;4.72;;;13.80;1.00;;;;;;5055074;28;20037;-83
2022/04/20 08:14:17;;;;;;;5.72;5.13;;;13.80;1.00;;;;;;5056939;28;20535;-82
2022/04/20 08:16:44;;;;;;;7.50;5.65;;;13.90;1.00;;;;;;5056686;28;20572;-82
2022/04/20 08:19:10;;;;;;;8.57;5.32;;;14.00;1.00;;;;;;5054963;28;20049;-83
2022/04/20 08:21:36;;;;;;;8.98;5.38;;;14.00;1.00;;;;;;5066838;28;20109;-83
2022/04/20 08:24:03;;;;;;;10.93;5.57;;;14.00;1.00;;;;;;5052190;28;20576;-83
2022/04/20 08:26:28;;;;;;;7.28;5.45;;;14.10;1.00;;;;;;5056734;28;20404;-83
2022/04/20 08:28:54;;;;;;;8.10;5.03;;;14.10;1.00;;;;;;5056245;28;20036;-83
2022/04/20 08:31:20;;;;;;;8.27;5.60;;;14.20;1.00;;;;;;5054079;28;20460;-82
2022/04/20 08:33:45;;;;;;;7.88;5.35;;;14.20;1.00;;;;;;5054069;28;20598;-83
2022/04/20 08:36:12;;;;;;;11.10;5.68;;;14.40;1.00;;;;;;5051374;28;20035;-83
2022/04/20 08:38:41;;;;;;;7.82;5.15;;;14.40;1.00;;;;;;5057531;28;20072;-83
2022/04/20 08:41:10;;;;;;;9.90;5.45;;;14.60;1.00;;;;;;5053689;28;20116;-83
2022/04/20 08:43:37;;;;;;;9.15;5.57;;;14.70;1.00;;;;;;5055778;28;20035;-83
2022/04/20 08:46:03;;;;;;;8.30;5.65;;;14.60;1.00;;;;;;5055443;28;20112;-83
2022/04/20 08:48:29;;;;;;;9.27;5.28;;;14.80;1.00;;;;;;5053574;28;20029;-83
2022/04/20 08:50:55;;;;;;;6.38;5.22;;;14.90;1.00;;;;;;5053379;28;20079;-83
2022/04/20 08:53:21;;;;;;;9.00;5.43;;;14.80;1.00;;;;;;5056753;28;20452;-83
2022/04/20 08:55:48;;;;;;;10.35;5.40;;;14.90;1.00;;;;;;5054950;28;20388;-83
2022/04/20 08:58:15;;;;;;;6.65;5.43;;;15.10;1.00;;;;;;5055423;28;20119;-83
2022/04/20 09:00:41;;;;;;;8.82;5.40;;;15.20;1.00;;;;;;5055051;28;20560;-82
2022/04/20 09:03:07;;;;;;;9.68;5.20;;;15.30;1.00;;;;;;5050724;28;20075;-83
2022/04/20 09:05:35;;;;;;;8.23;5.20;;;15.60;1.00;;;;;;5057745;28;20054;-83
2022/04/20 09:08:11;;;;;;;10.05;5.13;;;15.60;1.00;;;;;;5054654;28;20119;-83
2022/04/20 09:10:38;;;;;;;10.70;5.05;;;15.60;1.00;;;;;;5053645;28;20143;-83
2022/04/20 09:13:07;;;;;;;7.80;4.90;;;15.70;1.00;;;;;;5053644;28;20086;-83
2022/04/20 09:15:34;;;;;;;6.35;5.55;;;15.80;1.00;;;;;;5053464;28;20041;-83
2022/04/20 09:18:04;;;;;;;6.00;4.72;;;15.90;1.00;;;;;;5052118;28;20401;-83
2022/04/20 09:20:32;;;;;;;11.60;5.43;;;16.00;1.00;;;;;;5056863;28;20025;-83
2022/04/20 09:23:03;;;;;;;6.78;4.88;;;16.00;1.00;;;;;;5054562;28;20032;-83
2022/04/20 09:25:31;;;;;;;6.75;4.10;;;16.10;1.00;;;;;;5054898;28;20021;-82
2022/04/20 09:27:57;;;;;;;11.15;4.63;;;16.30;1.00;;;;;;5054686;28;20131;-83
2022/04/20 09:30:22;;;;;;;7.65;4.25;;;16.60;1.00;;;;;;5052008;28;20517;-83
2022/04/20 09:32:48;;;;;;;6.82;4.22;;;16.80;1.00;;;;;;5054147;28;20132;-83
2022/04/20 09:35:19;;;;;;;9.15;4.30;;;16.80;1.00;;;;;;5055396;28;20040;-83
2022/04/20 09:37:45;;;;;;;6.07;4.05;;;16.90;1.00;;;;;;5054351;28;20382;-82
2022/04/20 09:40:15;;;;;;;6.70;4.35;;;17.10;1.00;;;;;;5054216;28;20027;-83
2022/04/20 09:43:04;;;;;;;7.50;3.95;;;17.20;1.00;;;;;;5053435;28;20437;-83
2022/04/20 09:45:31;;;;;;;6.25;4.22;;;17.30;1.00;;;;;;5039010;28;20063;-83
2022/04/20 09:50:43;;;;;;;8.45;4.22;;;17.70;1.00;;;;;;5067638;28;20051;-83
2022/04/20 09:53:12;;;;;;;6.15;4.13;;;17.80;1.00;;;;;;5055195;28;20123;-82
2022/04/20 09:55:39;;;;;;;6.43;4.38;;;17.90;1.00;;;;;;5053982;28;20035;-82
2022/04/20 09:58:19;;;;;;;5.07;4.05;;;17.90;1.00;;;;;;5053885;28;20037;-83
2022/04/20 10:00:54;;;;;;;3.53;2.80;;;18.10;1.00;;;;;;5054099;28;20038;-84
2022/04/20 10:03:24;;;;;;;5.57;3.00;;;18.30;1.00;;;;;;5050861;28;20023;-83
2022/04/20 10:05:50;;;;;;;3.67;2.83;;;18.60;1.00;;;;;;5053608;28;20021;-81
2022/04/20 10:08:17;;;;;;;5.60;3.30;;;18.80;1.00;;;;;;5055503;28;20029;-83
2022/04/20 10:10:43;;;;;;;4.72;3.15;;;18.90;1.00;;;;;;5053789;28;20029;-81
2022/04/20 10:13:10;;;;;;;6.40;3.05;;;19.30;1.00;;;;;;5054265;28;20017;-83
2022/04/20 10:18:25;;;;;;;4.38;3.17;;;20.40;1.00;;;;;;5036451;28;20590;-82
2022/04/20 10:20:56;;;;;;;5.30;3.10;;;20.40;1.00;;;;;;5052478;28;20021;-82
2022/04/20 10:23:22;;;;;;;5.32;2.78;;;20.40;1.00;;;;;;5053563;28;20041;-84
2022/04/20 10:25:50;;;;;;;3.53;3.08;;;20.10;1.00;;;;;;5053722;28;20029;-84
2022/04/20 10:28:19;;;;;;;3.33;2.83;;;20.10;1.00;;;;;;5052616;28;20087;-83
2022/04/20 10:31:10;;;;;;;4.40;2.50;;;20.40;1.00;;;;;;5052298;28;20025;-84
2022/04/20 10:33:38;;;;;;;6.30;2.42;;;20.40;1.00;;;;;;5052135;28;20595;-83
2022/04/20 10:36:11;;;;;;;2.95;2.42;;;20.60;1.00;;;;;;5050460;28;20108;-81
2022/04/20 10:38:38;;;;;;;9.25;2.80;;;20.80;1.00;;;;;;5055362;28;20086;-84
2022/04/20 10:41:12;;;;;;;6.80;2.85;;;20.70;1.00;;;;;;5053576;28;20021;-84
2022/04/20 10:43:39;;;;;;;3.47;2.47;;;21.20;1.00;;;;;;5052986;28;20083;-85
2022/04/20 10:46:06;;;;;;;3.53;2.58;;;21.80;1.00;;;;;;5057376;28;20078;-84
2022/04/20 10:48:48;;;;;;;4.72;2.85;;;22.00;1.00;;;;;;5052861;28;20027;-82
2022/04/20 10:51:24;;;;;;;6.18;3.10;;;22.80;1.00;;;;;;5037852;28;20037;-82
2022/04/20 10:53:52;;;;;;;4.93;2.95;;;23.40;1.00;;;;;;5057389;28;20036;-84
2022/04/20 10:56:20;;;;;;;4.97;2.88;;;23.60;1.00;;;;;;5058580;28;20063;-83
2022/04/20 10:58:52;;;;;;;3.65;2.47;;;23.60;1.00;;;;;;5057119;28;20037;-84
2022/04/20 11:01:18;;;;;;;2.90;2.60;;;23.20;1.00;;;;;;5056863;28;20025;-84
2022/04/20 11:04:07;;;;;;;4.50;2.50;;;23.10;1.00;;;;;;5058615;28;20545;-88
2022/04/20 11:07:01;;;;;;;4.63;2.67;;;23.00;1.00;;;;;;5041484;28;20536;-82
2022/04/20 11:09:45;;;;;;;4.07;3.00;;;23.40;1.00;;;;;;5039594;28;20033;-83
2022/04/20 11:21:09;;;;;;;6.70;3.20;;;23.30;1.00;;;;;;5067349;28;20047;-85
2022/04/20 11:24:00;;;;;;;7.90;2.83;;;23.30;1.00;;;;;;5058810;28;20029;-84
2022/04/20 11:26:39;;;;;;;4.85;3.10;;;23.60;1.00;;;;;;5057614;28;20033;-85
2022/04/20 11:29:17;;;;;;;4.97;3.00;;;24.10;1.00;;;;;;5056902;28;20497;-84
2022/04/20 11:31:47;;;;;;;4.28;3.72;;;24.20;1.00;;;;;;5056625;28;20489;-85
2022/04/20 11:34:17;;;;;;;4.30;3.78;;;23.60;1.00;;;;;;5056641;28;20121;-84
2022/04/20 11:36:53;;;;;;;4.03;3.50;;;23.60;1.00;;;;;;5056819;28;20451;-84
2022/04/20 11:39:23;;;;;;;4.95;3.30;;;24.10;1.00;;;;;;5038464;28;20029;-84
2022/04/20 11:41:51;;;;;;;5.28;3.42;;;23.60;1.00;;;;;;5056987;28;20048;-84
2022/04/20 11:44:36;;;;;;;4.03;3.20;;;24.10;1.00;;;;;;5057728;28;20476;-84
2022/04/20 11:47:07;;;;;;;3.67;3.10;;;23.30;1.00;;;;;;5053519;28;20045;-84
2022/04/20 11:49:32;;;;;;;4.30;3.00;;;23.60;1.00;;;;;;5055051;28;20055;-84
2022/04/20 11:51:59;;;;;;;5.15;3.40;;;23.70;1.00;;;;;;5056314;28;20421;-84
2022/04/20 11:54:26;;;;;;;3.08;2.88;;;23.60;1.00;;;;;;5053657;28;20112;-84
2022/04/20 11:56:51;;;;;;;3.55;3.25;;;23.30;1.00;;;;;;5054761;28;20032;-84
2022/04/20 11:59:18;;;;;;;3.42;3.10;;;22.90;99.90;;;;;;5057860;28;20103;-84
2022/04/20 12:01:44;;;;;;;3.83;3.20;;;22.80;1.00;;;;;;5055860;28;20438;-84
2022/04/20 12:04:15;;;;;;;4.05;3.00;;;22.60;1.00;;;;;;5056380;28;20025;-84
2022/04/20 12:06:54;;;;;;;3.40;3.03;;;22.90;1.00;;;;;;5056012;28;20389;-84
2022/04/20 12:09:28;;;;;;;5.07;3.15;;;23.70;1.00;;;;;;5038470;28;20576;-85
2022/04/20 12:11:56;;;;;;;5.78;3.53;;;23.90;1.00;;;;;;5054890;28;20040;-83
2022/04/20 12:14:25;;;;;;;4.40;3.20;;;24.30;1.00;;;;;;5057975;28;20400;-85
2022/04/20 12:16:55;;;;;;;4.60;3.05;;;24.90;99.90;;;;;;5055923;28;20515;-84
2022/04/20 12:19:22;;;;;;;3.97;2.67;;;24.50;99.90;;;;;;5055845;28;20558;-84
2022/04/20 12:21:48;;;;;;;3.45;2.90;;;24.50;99.90;;;;;;5056060;28;20050;-84
2022/04/20 12:24:24;;;;;;;3.80;2.97;;;24.90;99.90;;;;;;5050459;28;20033;-85
2022/04/20 12:26:51;;;;;;;3.70;2.83;;;25.10;99.90;;;;;;5054942;28;20052;-84
2022/04/20 12:29:20;;;;;;;4.43;3.08;;;25.00;1.00;;;;;;5055283;28;20017;-84
2022/04/20 12:31:49;;;;;;;3.22;2.80;;;24.80;99.90;;;;;;5055714;28;20067;-84
2022/04/20 12:34:16;;;;;;;5.38;3.05;;;24.60;99.90;;;;;;5055390;28;20394;-84
2022/04/20 12:36:53;;;;;;;3.80;2.92;;;24.50;99.90;;;;;;5055234;28;20111;-85
2022/04/20 12:39:34;;;;;;;3.60;2.78;;;25.20;99.90;;;;;;5037502;28;20033;-84
2022/04/20 12:42:07;;;;;;;2.95;2.60;;;24.70;99.90;;;;;;5052631;28;20563;-84
2022/04/20 12:44:36;;;;;;;3.10;2.80;;;25.30;99.90;;;;;;5057093;28;20021;-84
2022/04/20 12:47:15;;;;;;;2.70;2.50;;;25.40;99.90;;;;;;5055447;28;20037;-84
2022/04/20 12:49:42;;;;;;;3.28;2.70;;;24.70;99.90;;;;;;5056008;28;20028;-84
2022/04/20 12:52:12;;;;;;;3.58;3.08;;;25.30;99.90;;;;;;5055564;28;20054;-84
2022/04/20 12:54:38;;;;;;;3.72;2.65;;;24.60;99.90;;;;;;5054307;28;20035;-84
2022/04/20 13:03:04;;;;;;;4.15;2.97;;;24.30;99.90;;;;;;5066188;28;20031;-84
2022/04/20 13:05:41;;;;;;;4.43;2.97;;;24.50;99.90;;;;;;5055914;28;20031;-84
2022/04/20 13:08:08;;;;;;;4.03;2.85;;;24.70;99.90;;;;;;5052747;28;20029;-84
2022/04/20 13:10:35;;;;;;;3.05;2.50;;;25.40;99.90;;;;;;5054820;28;20039;-84
2022/04/20 13:13:01;;;;;;;5.70;2.72;;;25.50;99.90;;;;;;5054996;28;20047;-84
2022/04/20 13:15:29;;;;;;;3.00;2.78;;;26.00;99.90;;;;;;5052584;28;20489;-85
2022/04/20 13:17:57;;;;;;;5.22;2.90;;;25.90;99.90;;;;;;5053412;28;20039;-84
2022/04/20 13:20:24;;;;;;;6.43;2.90;;;25.90;99.90;;;;;;5054558;28;20393;-85
2022/04/20 13:22:49;;;;;;;4.03;3.13;;;25.80;99.90;;;;;;5055083;28;20061;-84
2022/04/20 13:27:59;;;;;;;4.88;3.90;;;24.80;99.90;;;;;;5055284;28;20034;-85
2022/04/20 13:30:36;;;;;;;5.45;3.45;;;24.40;99.90;;;;;;5050573;28;20025;-84
2022/04/20 13:33:03;;;;;;;4.05;3.70;;;23.40;99.90;;;;;;5051491;28;20057;-84
2022/04/20 13:35:29;;;;;;;7.22;3.88;;;22.70;99.90;;;;;;5056288;28;20040;-84
2022/04/20 13:37:55;;;;;;;9.38;3.80;;;22.80;99.90;;;;;;5054679;28;20044;-84
2022/04/20 13:40:22;;;;;;;5.60;3.85;;;23.40;99.90;;;;;;5054722;28;20082;-84
2022/04/20 13:42:47;;;;;;;4.57;3.92;;;23.10;99.90;;;;;;5052899;28;20040;-83